Time;durP1;ratioP1;P1;durP2;ratioP2;P2;SDS_P1;SDS_P2;PMS_P1;PMS_P2;Temp;Humidity;BMP_temperature;BMP_pressure;BME280_temperature;BME280_humidity;BME280_pressure;Samples;Min_cycle;Max_cycle;Signal;HPM_P1;HPM_P2
2022/01/15 00:00:49;;;;;;;;;;;-1.30;83.70;;;;;;5026283;28;89089;-42
2022/01/15 00:03:15;;;;;;;;;;;-1.30;83.70;;;;;;5025563;28;88461;-41
2022/01/15 00:05:41;;;;;;;;;;;-1.30;83.70;;;;;;5025698;28;87199;-42
2022/01/15 00:08:06;;;;;;;;;;;-1.20;83.70;;;;;;5025837;28;88806;-42
2022/01/15 00:10:32;;;;;;;;;;;-1.30;83.60;;;;;;5026195;28;88656;-42
2022/01/15 00:12:58;;;;;;;;;;;-1.30;83.70;;;;;;5025808;28;87050;-41
2022/01/15 00:15:29;;;;;;;;;;;-1.40;84.00;;;;;;5028248;28;89163;-42
2022/01/15 00:18:15;;;;;;;;;;;-1.30;83.80;;;;;;5025048;28;87878;-41
2022/01/15 00:20:40;;;;;;;;;;;-1.30;83.80;;;;;;5025915;28;89796;-41
2022/01/15 00:23:06;;;;;;;;;;;-1.30;83.50;;;;;;5025386;28;89665;-42
2022/01/15 00:25:33;;;;;;;;;;;-1.30;83.50;;;;;;5025512;28;87052;-41
2022/01/15 00:27:59;;;;;;;;;;;-1.30;83.60;;;;;;5025471;28;88832;-42
2022/01/15 00:30:24;;;;;;;;;;;-1.40;84.00;;;;;;5025198;28;89527;-42
2022/01/15 00:32:52;;;;;;;;;;;-1.30;83.90;;;;;;5025607;28;87111;-41
2022/01/15 00:35:19;;;;;;;;;;;-1.40;83.70;;;;;;5025835;28;89034;-41
2022/01/15 00:37:44;;;;;;;;;;;-1.40;83.70;;;;;;5027808;28;89580;-42
2022/01/15 00:40:12;;;;;;;;;;;-1.50;84.00;;;;;;5025507;28;87896;-41
2022/01/15 00:42:39;;;;;;;;;;;-1.50;84.40;;;;;;5023863;28;90528;-41
2022/01/15 00:45:08;;;;;;;;;;;-1.40;84.20;;;;;;5025329;28;87221;-42
2022/01/15 00:47:33;;;;;;;;;;;-1.40;84.00;;;;;;5025230;28;88924;-41
2022/01/15 00:49:59;;;;;;;;;;;-1.50;84.20;;;;;;5024962;28;87844;-42
2022/01/15 00:52:25;;;;;;;;;;;-1.50;84.30;;;;;;5025365;28;87107;-41
2022/01/15 00:54:51;;;;;;;;;;;-1.40;84.20;;;;;;5025235;28;88819;-41
2022/01/15 00:57:16;;;;;;;;;;;-1.40;84.20;;;;;;5024788;28;89184;-42
2022/01/15 00:59:42;;;;;;;;;;;-1.40;84.00;;;;;;5028666;28;86165;-42
2022/01/15 01:02:07;;;;;;;;;;;-1.50;84.20;;;;;;5024363;28;89543;-42
2022/01/15 01:04:33;;;;;;;;;;;-1.50;84.10;;;;;;5024470;28;87117;-41
2022/01/15 01:06:58;;;;;;;;;;;-1.50;84.30;;;;;;5024403;28;88982;-41
2022/01/15 01:09:35;;;;;;;;;;;-1.50;84.60;;;;;;5024412;28;90028;-41
2022/01/15 01:12:20;;;;;;;;;;;-1.50;84.50;;;;;;5024893;28;86865;-42
2022/01/15 01:20:21;;;;;;;;;;;-1.50;84.40;;;;;;5023919;28;86852;-41
2022/01/15 01:22:57;;;;;;;;;;;-1.40;83.90;;;;;;5027214;28;88940;-41
2022/01/15 01:25:28;;;;;;;;;;;-1.50;84.20;;;;;;5025567;28;86180;-41
2022/01/15 01:28:03;;;;;;;;;;;-1.50;84.20;;;;;;5024982;28;87128;-42
2022/01/15 01:30:35;;;;;;;;;;;-1.50;84.20;;;;;;5024210;28;89761;-42
2022/01/15 01:33:16;;;;;;;;;;;-1.50;84.40;;;;;;5024113;28;88008;-42
2022/01/15 01:35:46;;;;;;;;;;;-1.60;84.40;;;;;;5023464;28;91436;-41
2022/01/15 01:38:18;;;;;;;;;;;-1.60;84.80;;;;;;5024161;28;89279;-41
2022/01/15 01:40:48;;;;;;;;;;;-1.60;84.70;;;;;;5024288;28;86884;-42
2022/01/15 01:45:47;;;;;;;;;;;-1.50;84.30;;;;;;5026972;28;87981;-41
2022/01/15 01:48:13;;;;;;;;;;;-1.60;84.80;;;;;;5024333;28;89852;-41
2022/01/15 01:50:38;;;;;;;;;;;-1.60;84.60;;;;;;5024588;28;87389;-41
2022/01/15 01:53:04;;;;;;;;;;;-1.60;84.60;;;;;;5024269;28;87148;-41
2022/01/15 01:55:30;;;;;;;;;;;-1.60;84.60;;;;;;5024226;28;88219;-41
2022/01/15 01:57:56;;;;;;;;;;;-1.60;84.80;;;;;;5023080;28;90431;-41
2022/01/15 02:00:22;;;;;;;;;;;-1.60;84.80;;;;;;5024095;28;87157;-42
2022/01/15 02:02:48;;;;;;;;;;;-1.50;84.50;;;;;;5024127;28;88899;-41
2022/01/15 02:05:14;;;;;;;;;;;-1.50;84.50;;;;;;5026625;28;89590;-41
2022/01/15 02:07:40;;;;;;;;;;;-1.60;84.60;;;;;;5022801;28;90649;-41
2022/01/15 02:10:09;;;;;;;;;;;-1.50;84.40;;;;;;5023482;28;89983;-41
2022/01/15 02:12:35;;;;;;;;;;;-1.60;84.10;;;;;;5023794;28;87019;-41
2022/01/15 02:15:06;;;;;;;;;;;-1.60;84.60;;;;;;5023444;28;88827;-42
2022/01/15 02:17:32;;;;;;;;;;;-1.60;84.60;;;;;;5023468;28;89817;-41
2022/01/15 02:20:21;;;;;;;;;;;-1.60;84.90;;;;;;5024109;28;87258;-41
2022/01/15 02:25:40;;;;;;;;;;;-1.60;84.80;;;;;;5023424;28;87309;-41
2022/01/15 02:28:06;;;;;;;;;;;-1.60;84.70;;;;;;5026699;28;87218;-41
2022/01/15 02:30:31;;;;;;;;;;;-1.60;84.60;;;;;;5023267;28;89243;-42
2022/01/15 02:32:57;;;;;;;;;;;-1.60;84.60;;;;;;5023625;28;86916;-41
2022/01/15 02:35:22;;;;;;;;;;;-1.60;84.40;;;;;;5023918;28;87444;-41
2022/01/15 02:37:48;;;;;;;;;;;-1.60;84.70;;;;;;5023135;28;89519;-41
2022/01/15 02:40:13;;;;;;;;;;;-1.50;84.60;;;;;;5024366;28;86465;-41
2022/01/15 02:42:39;;;;;;;;;;;-1.60;84.80;;;;;;5023317;28;88214;-41
2022/01/15 02:45:08;;;;;;;;;;;-1.70;85.20;;;;;;5023190;28;89354;-41
2022/01/15 02:50:17;;;;;;;;;;;-1.70;85.60;;;;;;5025717;28;87476;-41
2022/01/15 02:52:43;;;;;;;;;;;-1.70;85.40;;;;;;5023097;28;87119;-41
2022/01/15 02:55:09;;;;;;;;;;;-1.70;85.40;;;;;;5023232;28;89055;-41
2022/01/15 02:57:34;;;;;;;;;;;-1.70;85.10;;;;;;5023030;28;90300;-42
2022/01/15 03:00:00;;;;;;;;;;;-1.70;85.30;;;;;;5023459;28;87034;-41
2022/01/15 03:02:31;;;;;;;;;;;-1.70;85.40;;;;;;5023256;28;87480;-42
2022/01/15 03:04:56;;;;;;;;;;;-1.70;85.30;;;;;;5023373;28;88936;-42
2022/01/15 03:07:22;;;;;;;;;;;-1.70;85.50;;;;;;5023076;28;87242;-41
2022/01/15 03:09:47;;;;;;;;;;;-1.80;85.60;;;;;;5023345;28;88074;-41
2022/01/15 03:12:13;;;;;;;;;;;-1.70;85.70;;;;;;5025061;28;90806;-41
2022/01/15 03:14:39;;;;;;;;;;;-1.70;85.40;;;;;;5022950;28;88669;-41
2022/01/15 03:17:04;;;;;;;;;;;-1.70;85.50;;;;;;5022678;28;89627;-41
2022/01/15 03:19:30;;;;;;;;;;;-1.70;85.60;;;;;;5022984;28;87172;-41
2022/01/15 03:21:56;;;;;;;;;;;-1.80;85.80;;;;;;5023193;28;87475;-41
2022/01/15 03:24:21;;;;;;;;;;;-1.70;85.70;;;;;;5022532;28;89921;-42
2022/01/15 03:26:47;;;;;;;;;;;-1.70;85.50;;;;;;5024788;28;87140;-42
2022/01/15 03:29:12;;;;;;;;;;;-1.70;85.60;;;;;;5026954;28;88867;-41
2022/01/15 03:31:38;;;;;;;;;;;-1.70;85.70;;;;;;5026083;28;89752;-41
2022/01/15 03:34:03;;;;;;;;;;;-1.70;85.70;;;;;;5029198;28;87165;-41
2022/01/15 03:36:29;;;;;;;;;;;-1.70;85.70;;;;;;5025263;28;90940;-41
2022/01/15 03:38:54;;;;;;;;;;;-1.70;85.60;;;;;;5026092;28;87370;-41
2022/01/15 03:41:20;;;;;;;;;;;-1.70;85.80;;;;;;5026146;28;87559;-42
2022/01/15 03:43:46;;;;;;;;;;;-1.70;85.70;;;;;;5025858;28;89031;-41
2022/01/15 03:46:12;;;;;;;;;;;-1.80;85.80;;;;;;5026398;28;87136;-41
2022/01/15 03:48:37;;;;;;;;;;;-1.70;85.70;;;;;;5026341;28;88043;-41
2022/01/15 03:51:03;;;;;;;;;;;-1.70;85.80;;;;;;5025827;28;89533;-41
2022/01/15 03:53:29;;;;;;;;;;;-1.70;86.00;;;;;;5026244;28;86399;-42
2022/01/15 03:55:54;;;;;;;;;;;-1.80;85.90;;;;;;5028997;28;88223;-41
2022/01/15 03:58:20;;;;;;;;;;;-1.70;86.10;;;;;;5026094;28;87191;-41
2022/01/15 04:00:46;;;;;;;;;;;-1.80;86.00;;;;;;5025401;28;88609;-42
2022/01/15 04:03:11;;;;;;;;;;;-1.70;85.90;;;;;;5025682;28;89569;-41
2022/01/15 04:05:37;;;;;;;;;;;-1.70;86.00;;;;;;5025919;28;86911;-41
2022/01/15 04:08:02;;;;;;;;;;;-1.80;86.00;;;;;;5025823;28;89111;-41
2022/01/15 04:10:28;;;;;;;;;;;-1.70;85.90;;;;;;5025384;28;90040;-41
2022/01/15 04:12:53;;;;;;;;;;;-1.70;86.00;;;;;;5024514;28;87221;-41
2022/01/15 04:15:20;;;;;;;;;;;-1.70;86.00;;;;;;5028247;28;88749;-41
2022/01/15 04:17:48;;;;;;;;;;;-1.70;86.00;;;;;;5026099;28;86409;-42
2022/01/15 04:20:16;;;;;;;;;;;-1.70;86.00;;;;;;5025669;28;88329;-41
2022/01/15 04:22:41;;;;;;;;;;;-1.70;86.00;;;;;;5025277;28;89724;-41
2022/01/15 04:25:07;;;;;;;;;;;-1.80;86.00;;;;;;5025097;28;88125;-41
2022/01/15 04:27:33;;;;;;;;;;;-1.70;85.90;;;;;;5025678;28;90078;-41
2022/01/15 04:30:02;;;;;;;;;;;-1.70;86.00;;;;;;5025283;28;89477;-41
2022/01/15 04:32:28;;;;;;;;;;;-1.70;86.10;;;;;;5025427;28;87093;-41
2022/01/15 04:34:54;;;;;;;;;;;-1.70;86.10;;;;;;5025369;28;89370;-41
2022/01/15 04:37:22;;;;;;;;;;;-1.80;86.10;;;;;;5027575;28;89483;-42
2022/01/15 04:39:48;;;;;;;;;;;-1.80;86.20;;;;;;5024869;28;88942;-41
2022/01/15 04:42:15;;;;;;;;;;;-1.80;86.20;;;;;;5025475;28;87310;-41
2022/01/15 04:44:42;;;;;;;;;;;-1.70;86.30;;;;;;5025464;28;87117;-41
2022/01/15 04:47:07;;;;;;;;;;;-1.80;86.20;;;;;;5025375;28;88997;-41
2022/01/15 04:49:33;;;;;;;;;;;-1.80;86.10;;;;;;5024138;28;90070;-41
2022/01/15 04:51:59;;;;;;;;;;;-1.70;86.30;;;;;;5025062;28;87020;-41
2022/01/15 04:54:25;;;;;;;;;;;-1.70;86.30;;;;;;5025244;28;88789;-41
2022/01/15 04:56:50;;;;;;;;;;;-1.70;86.20;;;;;;5025104;28;89679;-41
2022/01/15 04:59:16;;;;;;;;;;;-1.70;86.30;;;;;;5026868;28;87164;-41
2022/01/15 05:01:41;;;;;;;;;;;-1.80;86.20;;;;;;5024832;28;88545;-41
2022/01/15 05:04:07;;;;;;;;;;;-1.80;86.30;;;;;;5025095;28;87186;-41
2022/01/15 05:06:33;;;;;;;;;;;-1.80;86.40;;;;;;5025605;28;87443;-41
2022/01/15 05:09:05;;;;;;;;;;;-1.80;86.50;;;;;;5024775;28;89975;-41
2022/01/15 05:11:43;;;;;;;;;;;-1.70;86.30;;;;;;5024994;28;87044;-41
2022/01/15 05:14:09;;;;;;;;;;;-1.70;86.30;;;;;;5024227;28;88669;-41
2022/01/15 05:16:35;;;;;;;;;;;-1.70;86.40;;;;;;5024526;28;89456;-41
2022/01/15 05:19:00;;;;;;;;;;;-1.70;86.50;;;;;;5024783;28;87153;-41
2022/01/15 05:21:26;;;;;;;;;;;-1.70;86.40;;;;;;5027164;28;89111;-41
2022/01/15 05:23:51;;;;;;;;;;;-1.70;86.30;;;;;;5024725;28;87174;-41
2022/01/15 05:26:17;;;;;;;;;;;-1.70;86.50;;;;;;5024944;28;89054;-41
2022/01/15 05:28:42;;;;;;;;;;;-1.70;86.50;;;;;;5024329;28;89868;-41
2022/01/15 05:31:08;;;;;;;;;;;-1.70;87.00;;;;;;5025221;28;86462;-41
2022/01/15 05:33:33;;;;;;;;;;;-1.70;86.50;;;;;;5024961;28;87000;-41
2022/01/15 05:35:59;;;;;;;;;;;-1.70;86.60;;;;;;5023972;28;89764;-41
2022/01/15 05:38:25;;;;;;;;;;;-1.70;86.60;;;;;;5023761;28;88091;-41
2022/01/15 05:40:50;;;;;;;;;;;-1.70;86.70;;;;;;5022505;28;91398;-42
2022/01/15 05:43:16;;;;;;;;;;;-1.70;86.60;;;;;;5026984;28;89611;-41
2022/01/15 05:45:41;;;;;;;;;;;-1.70;86.60;;;;;;5024373;28;88725;-41
2022/01/15 05:48:07;;;;;;;;;;;-1.70;86.70;;;;;;5023861;28;89519;-41
2022/01/15 05:50:32;;;;;;;;;;;-1.70;86.60;;;;;;5024293;28;86859;-41
2022/01/15 05:52:58;;;;;;;;;;;-1.70;86.50;;;;;;5024455;28;88989;-41
2022/01/15 05:55:24;;;;;;;;;;;-1.70;86.50;;;;;;5024522;28;86527;-41
2022/01/15 05:57:50;;;;;;;;;;;-1.70;86.50;;;;;;5024038;28;87147;-41
2022/01/15 06:00:16;;;;;;;;;;;-1.70;86.60;;;;;;5024437;28;87321;-41
2022/01/15 06:02:41;;;;;;;;;;;-1.70;86.50;;;;;;5023226;28;90643;-41
2022/01/15 06:05:07;;;;;;;;;;;-1.70;86.60;;;;;;5026716;28;87002;-41
2022/01/15 06:07:32;;;;;;;;;;;-1.70;86.60;;;;;;5023676;28;88096;-41
2022/01/15 06:09:58;;;;;;;;;;;-1.70;86.50;;;;;;5024190;28;87144;-41
2022/01/15 06:12:29;;;;;;;;;;;-1.70;86.60;;;;;;5023896;28;88734;-41
2022/01/15 06:14:55;;;;;;;;;;;-1.70;86.60;;;;;;5023633;28;89449;-41
2022/01/15 06:17:21;;;;;;;;;;;-1.70;86.50;;;;;;5023897;28;87099;-41
2022/01/15 06:19:46;;;;;;;;;;;-1.70;86.60;;;;;;5024471;28;87194;-41
2022/01/15 06:22:12;;;;;;;;;;;-1.70;86.70;;;;;;5023600;28;87872;-41
2022/01/15 06:24:37;;;;;;;;;;;-1.70;86.60;;;;;;5026711;28;87217;-41
2022/01/15 06:27:03;;;;;;;;;;;-1.70;86.50;;;;;;5022734;28;90170;-41
2022/01/15 06:29:29;;;;;;;;;;;-1.70;86.60;;;;;;5023770;28;86868;-41
2022/01/15 06:31:54;;;;;;;;;;;-1.70;86.60;;;;;;5023882;28;88965;-41
2022/01/15 06:34:20;;;;;;;;;;;-1.70;86.60;;;;;;5023237;28;89516;-41
2022/01/15 06:36:46;;;;;;;;;;;-1.60;86.70;;;;;;5023643;28;87242;-41
2022/01/15 06:39:11;;;;;;;;;;;-1.70;86.70;;;;;;5023954;28;89035;-41
2022/01/15 06:41:37;;;;;;;;;;;-1.60;86.70;;;;;;5023030;28;87977;-41
2022/01/15 06:44:02;;;;;;;;;;;-1.60;86.90;;;;;;5024005;28;86301;-41
2022/01/15 06:46:28;;;;;;;;;;;-1.60;86.70;;;;;;5026062;28;88340;-42
2022/01/15 06:48:53;;;;;;;;;;;-1.70;86.70;;;;;;5023277;28;87012;-41
2022/01/15 06:51:19;;;;;;;;;;;-1.60;86.80;;;;;;5022848;28;88103;-42
2022/01/15 06:53:45;;;;;;;;;;;-1.60;86.60;;;;;;5022993;28;89368;-41
2022/01/15 06:56:10;;;;;;;;;;;-1.60;86.70;;;;;;5023493;28;87106;-42
2022/01/15 06:58:36;;;;;;;;;;;-1.60;86.60;;;;;;5023643;28;87405;-42
2022/01/15 07:01:01;;;;;;;;;;;-1.60;86.60;;;;;;5022279;28;89556;-41
2022/01/15 07:03:27;;;;;;;;;;;-1.60;86.60;;;;;;5023137;28;87165;-41
2022/01/15 07:05:52;;;;;;;;;;;-1.60;86.50;;;;;;5023185;28;88803;-41
2022/01/15 07:08:18;;;;;;;;;;;-1.60;86.50;;;;;;5026058;28;89319;-42
2022/01/15 07:10:44;;;;;;;;;;;-1.60;86.60;;;;;;5023251;28;88521;-41
2022/01/15 07:13:09;;;;;;;;;;;-1.50;86.60;;;;;;5022887;28;89452;-41
2022/01/15 07:15:35;;;;;;;;;;;-1.50;86.70;;;;;;5022531;28;87975;-41
2022/01/15 07:18:01;;;;;;;;;;;-1.50;86.60;;;;;;5023066;28;89768;-41
2022/01/15 07:20:27;;;;;;;;;;;-1.50;86.60;;;;;;5022405;28;88739;-41
2022/01/15 07:22:53;;;;;;;;;;;-1.50;86.60;;;;;;5022871;28;87132;-42
2022/01/15 07:25:18;;;;;;;;;;;-1.50;86.80;;;;;;5022998;28;88811;-41
2022/01/15 07:27:44;;;;;;;;;;;-1.50;86.90;;;;;;5022505;28;89784;-41
2022/01/15 07:30:10;;;;;;;;;;;-1.50;86.70;;;;;;5025858;28;86961;-42
2022/01/15 07:32:36;;;;;;;;;;;-1.50;86.80;;;;;;5022998;28;88647;-41
2022/01/15 07:35:02;;;;;;;;;;;-1.50;86.90;;;;;;5022929;28;87063;-42
2022/01/15 07:37:27;;;;;;;;;;;-1.50;87.00;;;;;;5022857;28;88808;-41
2022/01/15 07:39:53;;;;;;;;;;;-1.40;87.00;;;;;;5021706;28;90467;-41
2022/01/15 07:42:19;;;;;;;;;;;-1.40;86.80;;;;;;5022712;28;87124;-42
2022/01/15 07:44:44;;;;;;;;;;;-1.40;86.80;;;;;;5022704;28;88817;-41
2022/01/15 07:47:12;;;;;;;;;;;-1.40;86.80;;;;;;5022794;28;88049;-41
2022/01/15 07:49:37;;;;;;;;;;;-1.40;86.70;;;;;;5022675;28;87137;-42
2022/01/15 07:52:03;;;;;;;;;;;-1.40;86.90;;;;;;5025600;28;87633;-42
2022/01/15 07:54:28;;;;;;;;;;;-1.40;87.00;;;;;;5022579;28;86998;-41
2022/01/15 07:56:55;;;;;;;;;;;-1.40;86.80;;;;;;5022970;28;89416;-42
2022/01/15 07:59:24;;;;;;;;;;;-1.30;86.80;;;;;;5022175;28;89610;-41
2022/01/15 08:01:49;;;;;;;;;;;-1.30;86.80;;;;;;5022604;28;87109;-41
2022/01/15 08:04:15;;;;;;;;;;;-1.30;87.40;;;;;;5022085;28;87800;-41
2022/01/15 08:06:41;;;;;;;;;;;-1.30;87.30;;;;;;5022206;28;89662;-42
2022/01/15 08:09:07;;;;;;;;;;;-1.30;87.40;;;;;;5022402;28;87152;-42
2022/01/15 08:11:33;;;;;;;;;;;-1.40;87.60;;;;;;5024918;28;88941;-42
2022/01/15 08:13:58;;;;;;;;;;;-1.30;87.50;;;;;;5024251;28;87132;-42
2022/01/15 08:16:24;;;;;;;;;;;-1.30;87.60;;;;;;5025932;28;87352;-42
2022/01/15 08:18:49;;;;;;;;;;;-1.30;87.80;;;;;;5025421;28;90188;-42
2022/01/15 08:21:15;;;;;;;;;;;-1.30;87.80;;;;;;5026285;28;86568;-42
2022/01/15 08:23:41;;;;;;;;;;;-1.30;87.90;;;;;;5026021;28;87933;-42
2022/01/15 08:26:07;;;;;;;;;;;-1.30;87.60;;;;;;5025344;28;89477;-42
2022/01/15 08:28:32;;;;;;;;;;;-1.30;87.80;;;;;;5025002;28;88068;-42
2022/01/15 08:30:58;;;;;;;;;;;-1.30;87.70;;;;;;5025637;28;89629;-42
2022/01/15 08:33:24;;;;;;;;;;;-1.20;87.80;;;;;;5027990;28;88237;-42
2022/01/15 08:35:49;;;;;;;;;;;-1.20;87.80;;;;;;5025183;28;88692;-42
2022/01/15 08:38:15;;;;;;;;;;;-1.20;87.90;;;;;;5025099;28;89375;-42
2022/01/15 08:40:40;;;;;;;;;;;-1.30;88.20;;;;;;5024904;28;87186;-42
2022/01/15 08:43:06;;;;;;;;;;;-1.20;88.00;;;;;;5025662;28;86854;-41
2022/01/15 08:45:31;;;;;;;;;;;-1.20;88.10;;;;;;5025486;28;88478;-42
2022/01/15 08:47:57;;;;;;;;;;;-1.20;88.20;;;;;;5025433;28;86763;-41
2022/01/15 08:50:23;;;;;;;;;;;-1.20;88.00;;;;;;5024918;28;88652;-42
2022/01/15 08:52:49;;;;;;;;;;;-1.20;88.40;;;;;;5024167;28;90995;-42
2022/01/15 08:55:15;;;;;;;;;;;-1.20;88.20;;;;;;5028075;28;87011;-42
2022/01/15 08:57:42;;;;;;;;;;;-1.20;88.40;;;;;;5024848;28;88420;-42
2022/01/15 09:00:10;;;;;;;;;;;-1.20;88.70;;;;;;5025165;28;87141;-42
2022/01/15 09:02:36;;;;;;;;;;;-1.20;88.70;;;;;;5025098;28;88445;-42
2022/01/15 09:05:02;;;;;;;;;;;-1.20;88.70;;;;;;5024487;28;88365;-42
2022/01/15 09:07:28;;;;;;;;;;;-1.20;88.70;;;;;;5024945;28;87030;-42
2022/01/15 09:09:53;;;;;;;;;;;-1.20;88.60;;;;;;5025695;28;89192;-42
2022/01/15 09:12:22;;;;;;;;;;;-1.20;88.90;;;;;;5024504;28;89675;-42
2022/01/15 09:14:52;;;;;;;;;;;-1.20;88.80;;;;;;5024781;28;87200;-42
2022/01/15 09:17:20;;;;;;;;;;;-1.10;88.80;;;;;;5026759;28;88926;-42
2022/01/15 09:19:46;;;;;;;;;;;-1.10;89.00;;;;;;5024692;28;86756;-42
2022/01/15 09:22:11;;;;;;;;;;;-1.10;89.10;;;;;;5024884;28;88327;-42
2022/01/15 09:24:37;;;;;;;;;;;-1.10;89.20;;;;;;5024101;28;88668;-42
2022/01/15 09:30:12;;;;;;;;;;;-1.10;89.20;;;;;;5024624;28;87088;-42
2022/01/15 09:32:33;;;;;;;;;;;-1.10;89.20;;;;;;5022009;28;87243;-41
2022/01/15 09:34:58;;;;;;;;;;;-1.10;89.20;;;;;;5025245;28;86427;-42
2022/01/15 09:37:24;;;;;;;;;;;-1.10;89.20;;;;;;5024588;28;88285;-42
2022/01/15 09:39:50;;;;;;;;;;;-1.00;89.20;;;;;;5027268;28;88144;-42
2022/01/15 09:42:16;;;;;;;;;;;-1.10;89.30;;;;;;5023596;28;88071;-42
2022/01/15 09:44:42;;;;;;;;;;;-1.10;89.30;;;;;;5023734;28;89751;-41
2022/01/15 09:47:09;;;;;;;;;;;-1.10;89.30;;;;;;5024498;28;86930;-42
2022/01/15 09:49:35;;;;;;;;;;;-1.00;89.20;;;;;;5024597;28;89036;-42
2022/01/15 09:52:02;;;;;;;;;;;-1.00;88.80;;;;;;5024197;28;87265;-42
2022/01/15 09:54:28;;;;;;;;;;;-1.00;88.80;;;;;;5024393;28;87117;-42
2022/01/15 09:56:53;;;;;;;;;;;-1.00;88.90;;;;;;5024095;28;88740;-42
2022/01/15 09:59:20;;;;;;;;;;;-0.90;88.80;;;;;;5024030;28;88855;-42
2022/01/15 10:01:46;;;;;;;;;;;-0.90;88.50;;;;;;5027267;28;87125;-42
2022/01/15 10:04:13;;;;;;;;;;;-0.90;88.10;;;;;;5024098;28;87854;-42
2022/01/15 10:06:58;;;;;;;;;;;-0.90;88.30;;;;;;5023339;28;88067;-42
2022/01/15 10:09:24;;;;;;;;;;;-0.90;88.50;;;;;;5023796;27;89757;-41
2022/01/15 10:11:53;;;;;;;;;;;-0.90;88.80;;;;;;5023182;28;88676;-42
2022/01/15 10:14:24;;;;;;;;;;;-0.90;89.00;;;;;;5023689;28;87200;-42
2022/01/15 10:16:50;;;;;;;;;;;-0.90;88.50;;;;;;5023963;28;88869;-42
2022/01/15 10:19:29;;;;;;;;;;;-0.90;88.70;;;;;;5023769;28;89088;-42
2022/01/15 10:22:04;;;;;;;;;;;-0.90;88.50;;;;;;5026791;28;87108;-42
2022/01/15 10:24:30;;;;;;;;;;;-0.80;88.40;;;;;;5023924;28;88643;-42
2022/01/15 10:26:55;;;;;;;;;;;-0.80;88.40;;;;;;5023769;28;87222;-42
2022/01/15 10:29:21;;;;;;;;;;;-0.80;87.70;;;;;;5023744;28;89156;-42
2022/01/15 10:31:46;;;;;;;;;;;-0.80;88.00;;;;;;5022660;28;90791;-42
2022/01/15 10:34:29;;;;;;;;;;;-0.70;88.40;;;;;;5023565;28;87158;-42
2022/01/15 10:37:08;;;;;;;;;;;-0.60;87.70;;;;;;5022528;28;88867;-42
2022/01/15 10:39:34;;;;;;;;;;;-0.60;87.50;;;;;;5023577;28;89210;-42
2022/01/15 10:41:59;;;;;;;;;;;-0.60;87.10;;;;;;5023459;28;87149;-42
2022/01/15 10:44:29;;;;;;;;;;;-0.50;87.10;;;;;;5026098;28;89013;-42
2022/01/15 10:47:08;;;;;;;;;;;-0.50;86.90;;;;;;5023446;28;87104;-42
2022/01/15 10:49:35;;;;;;;;;;;-0.50;87.30;;;;;;5023673;28;88343;-42
2022/01/15 10:52:27;;;;;;;;;;;-0.50;86.80;;;;;;5023143;28;89127;-42
2022/01/15 10:54:58;;;;;;;;;;;-0.50;86.90;;;;;;5023645;28;86973;-42
2022/01/15 10:57:31;;;;;;;;;;;-0.40;86.50;;;;;;5022783;28;88833;-42
2022/01/15 11:00:04;;;;;;;;;;;-0.40;86.60;;;;;;5022614;28;89028;-42
2022/01/15 11:02:29;;;;;;;;;;;-0.40;86.20;;;;;;5023240;28;87125;-42
2022/01/15 11:04:55;;;;;;;;;;;-0.30;86.20;;;;;;5023405;28;88969;-42
2022/01/15 11:07:20;;;;;;;;;;;-0.30;86.30;;;;;;5025783;28;89033;-42
2022/01/15 11:09:47;;;;;;;;;;;-0.30;86.20;;;;;;5023640;28;87398;-42
2022/01/15 11:12:13;;;;;;;;;;;-0.30;86.30;;;;;;5021599;28;91176;-42
2022/01/15 11:14:39;;;;;;;;;;;-0.30;86.10;;;;;;5023332;28;86478;-42
2022/01/15 11:17:05;;;;;;;;;;;-0.30;86.60;;;;;;5023253;28;87398;-42
2022/01/15 11:19:31;;;;;;;;;;;-0.30;86.50;;;;;;5022774;28;89444;-42
2022/01/15 11:22:00;;;;;;;;;;;-0.30;87.00;;;;;;5022421;28;88063;-42
2022/01/15 11:24:25;;;;;;;;;;;-0.30;86.80;;;;;;5023023;28;89927;-42
2022/01/15 11:26:58;;;;;;;;;;;-0.30;86.60;;;;;;5022594;28;89436;-42
2022/01/15 11:29:25;;;;;;;;;;;-0.20;86.60;;;;;;5026191;28;87044;-42
2022/01/15 11:31:51;;;;;;;;;;;-0.20;86.50;;;;;;5022758;28;88535;-42
2022/01/15 11:34:19;;;;;;;;;;;-0.20;86.60;;;;;;5022678;28;86994;-42
2022/01/15 11:36:44;;;;;;;;;;;-0.20;86.60;;;;;;5022782;28;88885;-42
2022/01/15 11:39:11;;;;;;;;;;;-0.20;86.50;;;;;;5022816;28;89220;-42
2022/01/15 11:41:43;;;;;;;;;;;-0.20;86.50;;;;;;5022348;28;87113;-42
2022/01/15 11:44:16;;;;;;;;;;;-0.10;86.30;;;;;;5022888;28;88795;-43
2022/01/15 11:46:55;;;;;;;;;;;-0.10;86.30;;;;;;5021860;28;89675;-42
2022/01/15 11:49:30;;;;;;;;;;;-0.10;86.30;;;;;;5026232;28;87157;-42
2022/01/15 11:51:57;;;;;;;;;;;-0.10;86.50;;;;;;5029086;28;87325;-42
2022/01/15 11:54:23;;;;;;;;;;;-0.10;86.30;;;;;;5025917;28;87162;-42
2022/01/15 11:56:49;;;;;;;;;;;-0.10;86.20;;;;;;5026111;28;88822;-42
2022/01/15 11:59:23;;;;;;;;;;;-0.10;87.20;;;;;;5025824;28;89281;-42
2022/01/15 12:01:49;;;;;;;;;;;-0.10;86.70;;;;;;5026298;28;87121;-42
2022/01/15 12:04:28;;;;;;;;;;;-0.10;86.50;;;;;;5026412;28;91585;-42
2022/01/15 12:07:02;;;;;;;;;;;0.00;86.70;;;;;;5025356;28;90010;-42
2022/01/15 12:09:41;;;;;;;;;;;0.00;86.60;;;;;;5025815;28;87053;-42
2022/01/15 12:12:19;;;;;;;;;;;0.00;86.80;;;;;;5025068;28;88934;-43
2022/01/15 12:14:49;;;;;;;;;;;0.00;86.20;;;;;;5028144;28;89242;-42
2022/01/15 12:17:28;;;;;;;;;;;0.00;86.50;;;;;;5025683;28;88688;-43
2022/01/15 12:19:54;;;;;;;;;;;0.00;86.60;;;;;;5025472;28;89498;-42
2022/01/15 12:22:41;;;;;;;;;;;0.00;86.60;;;;;;5025872;28;87076;-42
2022/01/15 12:25:08;;;;;;;;;;;0.10;86.30;;;;;;5025589;28;88509;-42
2022/01/15 12:27:34;;;;;;;;;;;0.10;86.20;;;;;;5025335;28;89492;-43
2022/01/15 12:30:02;;;;;;;;;;;0.10;86.30;;;;;;5026108;28;86335;-42
2022/01/15 12:32:32;;;;;;;;;;;0.10;86.50;;;;;;5025747;28;88355;-42
2022/01/15 12:34:58;;;;;;;;;;;0.10;86.20;;;;;;5027976;28;89581;-42
2022/01/15 12:37:24;;;;;;;;;;;0.10;86.40;;;;;;5024913;28;90612;-42
2022/01/15 12:39:50;;;;;;;;;;;0.10;86.40;;;;;;5025071;28;88317;-42
2022/01/15 12:42:17;;;;;;;;;;;0.10;86.20;;;;;;5024857;28;87021;-42
2022/01/15 12:44:45;;;;;;;;;;;0.10;86.20;;;;;;5025597;28;88835;-42
2022/01/15 12:47:11;;;;;;;;;;;0.20;85.90;;;;;;5024932;28;89384;-42
2022/01/15 12:49:38;;;;;;;;;;;0.20;85.80;;;;;;5025369;28;86796;-42
2022/01/15 12:52:26;;;;;;;;;;;0.20;85.50;;;;;;5025153;28;88715;-42
2022/01/15 12:54:53;;;;;;;;;;;0.20;85.70;;;;;;5027079;28;88995;-42
2022/01/15 12:57:37;;;;;;;;;;;0.20;85.60;;;;;;5027974;28;87083;-42
2022/01/15 13:00:07;;;;;;;;;;;0.30;85.30;;;;;;5024075;28;89476;-42
2022/01/15 13:02:33;;;;;;;;;;;0.30;85.80;;;;;;5024430;28;88138;-43
2022/01/15 13:04:58;;;;;;;;;;;0.30;85.30;;;;;;5025082;28;89526;-42
2022/01/15 13:07:24;;;;;;;;;;;0.30;85.30;;;;;;5024482;28;89279;-42
2022/01/15 13:09:49;;;;;;;;;;;0.30;85.50;;;;;;5025009;28;87129;-42
2022/01/15 13:12:15;;;;;;;;;;;0.40;85.50;;;;;;5025085;28;88893;-43
2022/01/15 13:14:42;;;;;;;;;;;0.40;85.50;;;;;;5024209;28;89879;-42
2022/01/15 13:17:24;;;;;;;;;;;0.40;85.30;;;;;;5024992;28;87109;-42
2022/01/15 13:19:49;;;;;;;;;;;0.40;85.50;;;;;;5027744;28;89093;-42
2022/01/15 13:22:19;;;;;;;;;;;0.40;85.40;;;;;;5024714;28;87136;-42
2022/01/15 13:24:45;;;;;;;;;;;0.50;85.30;;;;;;5024791;28;88823;-42
2022/01/15 13:27:10;;;;;;;;;;;0.50;85.30;;;;;;5023374;28;90316;-42
2022/01/15 13:29:37;;;;;;;;;;;0.50;85.50;;;;;;5024690;28;87137;-42
2022/01/15 13:32:02;;;;;;;;;;;0.50;85.40;;;;;;5024582;28;88872;-42
2022/01/15 13:34:32;;;;;;;;;;;0.50;85.40;;;;;;5024406;28;88183;-42
2022/01/15 13:37:10;;;;;;;;;;;0.50;85.50;;;;;;5024260;28;87223;-42
2022/01/15 13:39:37;;;;;;;;;;;0.50;86.10;;;;;;5024350;28;89312;-42
2022/01/15 13:42:03;;;;;;;;;;;0.50;85.70;;;;;;5026279;28;89926;-42
2022/01/15 13:44:35;;;;;;;;;;;0.50;85.60;;;;;;5024736;28;89026;-42
2022/01/15 13:47:08;;;;;;;;;;;0.50;85.50;;;;;;5024075;28;88058;-42
2022/01/15 13:53:04;;;;;;;;;;;0.50;85.70;;;;;;5024573;28;87081;-42
2022/01/15 13:55:15;;;;;;;;;;;0.50;85.80;;;;;;5023634;28;87182;-42
2022/01/15 13:57:41;;;;;;;;;;;0.50;86.00;;;;;;5023866;28;87129;-42
2022/01/15 14:00:10;;;;;;;;;;;0.60;86.00;;;;;;5024083;28;88972;-42
2022/01/15 14:02:35;;;;;;;;;;;0.60;85.80;;;;;;5023653;28;89454;-43
2022/01/15 14:05:13;;;;;;;;;;;0.60;85.50;;;;;;5027128;28;87153;-42
2022/01/15 14:07:38;;;;;;;;;;;0.50;85.70;;;;;;5023804;28;89519;-42
2022/01/15 14:10:14;;;;;;;;;;;0.40;86.70;;;;;;5024100;28;86344;-43
2022/01/15 14:12:40;;;;;;;;;;;0.30;87.10;;;;;;5023288;28;88260;-42
2022/01/15 14:15:13;;;;;;;;;;;0.40;86.90;;;;;;5023547;28;89819;-42
2022/01/15 14:17:42;;;;;;;;;;;0.50;86.50;;;;;;5023391;28;87988;-42
2022/01/15 14:22:41;;;;;;;;;;;0.60;86.10;;;;;;5023167;28;87727;-42
2022/01/15 14:25:15;;;;;;;;;;;0.60;85.90;;;;;;5023762;28;87143;-42
2022/01/15 14:27:41;;;;;;;;;;;0.70;85.90;;;;;;5026142;28;88929;-42
2022/01/15 14:30:07;;;;;;;;;;;0.70;85.80;;;;;;5023659;28;87184;-42
2022/01/15 14:32:33;;;;;;;;;;;0.70;85.50;;;;;;5023758;28;90006;-42
2022/01/15 14:34:58;;;;;;;;;;;0.70;85.70;;;;;;5023633;28;88674;-42
2022/01/15 14:37:25;;;;;;;;;;;0.70;85.40;;;;;;5023528;28;86950;-42
2022/01/15 14:39:53;;;;;;;;;;;0.70;85.50;;;;;;5023495;28;89254;-42
2022/01/15 14:42:19;;;;;;;;;;;0.80;85.60;;;;;;5022297;28;92092;-42